Time;durP1;ratioP1;P1;durP2;ratioP2;P2;SDS_P1;SDS_P2;PMS_P1;PMS_P2;Temp;Humidity;BMP_temperature;BMP_pressure;BME280_temperature;BME280_humidity;BME280_pressure;Samples;Min_cycle;Max_cycle;Signal;HPM_P1;HPM_P2
2022/02/24 00:01:24;;;;;;;17.65;7.13;;;;;;;;;;6232468;28;20069;-84
2022/02/24 00:04:26;;;;;;;24.63;10.90;;;;;;;;;;6218203;28;20038;-80
2022/02/24 00:07:28;;;;;;;15.52;7.55;;;;;;;;;;6220619;28;20133;-83
2022/02/24 00:10:48;;;;;;;14.15;6.95;;;;;;;;;;6216275;28;20126;-83
2022/02/24 00:13:50;;;;;;;13.80;6.80;;;;;;;;;;6216779;28;20048;-83
2022/02/24 00:16:51;;;;;;;17.23;6.80;;;;;;;;;;6217640;28;20494;-84
2022/02/24 00:19:53;;;;;;;16.25;8.00;;;;;;;;;;6233485;28;20064;-87
2022/02/24 00:22:55;;;;;;;17.02;8.52;;;;;;;;;;6241422;28;20056;-83
2022/02/24 00:25:56;;;;;;;17.42;10.25;;;;;;;;;;6238104;28;20053;-83
2022/02/24 00:28:58;;;;;;;15.93;8.13;;;;;;;;;;6200709;28;20101;-84
2022/02/24 00:32:00;;;;;;;15.63;8.32;;;;;;;;;;6234008;28;20667;-86
2022/02/24 00:35:02;;;;;;;13.70;7.68;;;;;;;;;;6202637;28;20437;-85
2022/02/24 00:38:03;;;;;;;16.55;8.20;;;;;;;;;;6217511;28;20092;-84
2022/02/24 00:41:05;;;;;;;15.88;8.10;;;;;;;;;;6234483;28;20038;-83
2022/02/24 00:44:07;;;;;;;15.73;8.45;;;;;;;;;;6234435;28;20196;-85
2022/02/24 00:47:08;;;;;;;18.15;8.50;;;;;;;;;;6220190;28;20049;-85
2022/02/24 00:50:10;;;;;;;20.67;8.13;;;;;;;;;;6226269;28;20140;-83
2022/02/24 00:53:12;;;;;;;15.65;9.57;;;;;;;;;;6234616;28;20180;-84
2022/02/24 00:56:14;;;;;;;21.70;10.05;;;;;;;;;;6218243;28;20054;-84
2022/02/24 00:59:15;;;;;;;19.48;10.57;;;;;;;;;;6217779;28;20584;-86
2022/02/24 01:02:17;;;;;;;20.65;10.70;;;;;;;;;;6220806;28;20088;-83
2022/02/24 01:05:19;;;;;;;20.27;10.65;;;;;;;;;;6249064;28;20033;-83
2022/02/24 01:08:21;;;;;;;17.48;10.27;;;;;;;;;;6241141;28;20045;-84
2022/02/24 01:11:23;;;;;;;20.05;11.43;;;;;;;;;;6242141;28;20069;-84
2022/02/24 01:14:25;;;;;;;19.48;11.93;;;;;;;;;;6242553;28;20045;-86
2022/02/24 01:17:27;;;;;;;22.88;13.63;;;;;;;;;;6235892;28;20049;-86
2022/02/24 01:20:30;;;;;;;20.50;11.48;;;;;;;;;;6240987;28;20053;-84
2022/02/24 01:23:32;;;;;;;19.95;9.95;;;;;;;;;;6281339;28;20079;-83
2022/02/24 01:26:34;;;;;;;19.95;10.98;;;;;;;;;;6260927;28;20069;-85
2022/02/24 01:29:35;;;;;;;22.17;11.98;;;;;;;;;;6246913;28;20068;-85
2022/02/24 01:32:37;;;;;;;21.98;12.00;;;;;;;;;;6246971;28;20049;-83
2022/02/24 01:35:38;;;;;;;21.98;11.60;;;;;;;;;;6249660;28;20050;-83
2022/02/24 01:38:40;;;;;;;21.52;11.30;;;;;;;;;;6250182;28;20045;-83
2022/02/24 01:41:42;;;;;;;18.17;10.40;;;;;;;;;;6237200;28;20558;-83
2022/02/24 01:44:45;;;;;;;22.17;11.95;;;;;;;;;;6222280;28;20049;-82
2022/02/24 01:47:47;;;;;;;21.13;11.02;;;;;;;;;;6237587;28;20073;-83
2022/02/24 01:50:49;;;;;;;21.73;10.93;;;;;;;;;;6225269;28;20081;-85
2022/02/24 01:53:51;;;;;;;20.83;11.50;;;;;;;;;;6223815;28;20049;-84
2022/02/24 01:56:54;;;;;;;17.80;10.80;;;;;;;;;;6229775;28;20046;-87
2022/02/24 01:59:57;;;;;;;21.85;10.90;;;;;;;;;;6245656;28;20034;-85
2022/02/24 02:02:58;;;;;;;22.67;11.47;;;;;;;;;;6259897;28;20033;-83
2022/02/24 02:06:01;;;;;;;21.40;11.33;;;;;;;;;;6262029;28;20146;-80
2022/02/24 02:09:03;;;;;;;19.42;11.73;;;;;;;;;;6257710;28;20441;-80
2022/02/24 02:12:08;;;;;;;20.30;11.55;;;;;;;;;;6254507;28;20171;-82
2022/02/24 02:15:10;;;;;;;20.55;11.27;;;;;;;;;;6270538;28;20123;-80
2022/02/24 02:18:11;;;;;;;20.10;11.75;;;;;;;;;;6281954;28;20496;-84
2022/02/24 02:21:14;;;;;;;17.98;11.45;;;;;;;;;;6261386;28;20046;-84
2022/02/24 02:24:15;;;;;;;19.03;11.37;;;;;;;;;;6249428;28;20072;-82
2022/02/24 02:27:22;;;;;;;18.67;10.27;;;;;;;;;;6247257;28;20556;-86
2022/02/24 02:30:24;;;;;;;18.55;10.45;;;;;;;;;;6245261;28;20396;-81
2022/02/24 02:33:25;;;;;;;18.02;10.27;;;;;;;;;;6243449;28;20045;-83
2022/02/24 02:36:27;;;;;;;17.02;8.13;;;;;;;;;;6234378;28;20734;-83
2022/02/24 02:39:29;;;;;;;16.67;8.15;;;;;;;;;;6243164;28;20038;-82
2022/02/24 02:42:31;;;;;;;17.15;8.88;;;;;;;;;;6245854;28;20064;-84
2022/02/24 02:45:32;;;;;;;16.73;9.02;;;;;;;;;;6248114;28;20123;-85
2022/02/24 02:48:34;;;;;;;13.25;8.52;;;;;;;;;;6246328;28;20049;-84
2022/02/24 02:51:36;;;;;;;12.82;7.32;;;;;;;;;;6245334;28;20080;-83
2022/02/24 02:54:37;;;;;;;14.00;7.90;;;;;;;;;;6260193;28;20518;-84
2022/02/24 02:57:39;;;;;;;18.52;7.93;;;;;;;;;;6225527;28;20816;-84
2022/02/24 03:00:41;;;;;;;13.57;7.72;;;;;;;;;;6236485;28;20058;-84
2022/02/24 03:03:43;;;;;;;13.65;7.10;;;;;;;;;;6235268;28;20046;-87
2022/02/24 03:06:45;;;;;;;14.73;7.70;;;;;;;;;;6246012;28;20068;-82
2022/02/24 03:09:47;;;;;;;15.45;8.25;;;;;;;;;;6259154;28;20395;-87
2022/02/24 03:12:49;;;;;;;23.05;11.02;;;;;;;;;;6241874;28;20067;-85
2022/02/24 03:15:51;;;;;;;21.67;10.38;;;;;;;;;;6243915;28;20118;-85
2022/02/24 03:18:54;;;;;;;22.48;10.90;;;;;;;;;;6261508;28;20041;-85
2022/02/24 03:21:56;;;;;;;21.75;10.48;;;;;;;;;;6242918;28;20148;-83
2022/02/24 03:24:57;;;;;;;20.38;9.30;;;;;;;;;;6245289;28;20061;-84
2022/02/24 03:27:59;;;;;;;15.23;9.43;;;;;;;;;;6222697;28;20080;-82
2022/02/24 03:31:01;;;;;;;16.25;8.98;;;;;;;;;;6236005;28;20069;-84
2022/02/24 03:34:03;;;;;;;15.43;8.93;;;;;;;;;;6235273;28;20518;-85
2022/02/24 03:37:04;;;;;;;15.93;8.23;;;;;;;;;;6226249;28;20050;-81
2022/02/24 03:40:08;;;;;;;15.63;8.57;;;;;;;;;;6218203;28;20665;-83
2022/02/24 03:43:09;;;;;;;18.55;9.25;;;;;;;;;;6242329;28;20135;-86
2022/02/24 03:46:11;;;;;;;17.13;9.00;;;;;;;;;;6259788;28;20079;-84
2022/02/24 03:49:13;;;;;;;19.02;9.45;;;;;;;;;;6242539;28;20052;-83
2022/02/24 03:52:18;;;;;;;26.65;12.18;;;;;;;;;;6244064;28;20105;-84
2022/02/24 03:55:20;;;;;;;18.63;10.57;;;;;;;;;;6258908;28;20048;-85
2022/02/24 03:58:22;;;;;;;22.38;12.02;;;;;;;;;;6217587;28;20038;-82
2022/02/24 04:01:23;;;;;;;21.42;12.70;;;;;;;;;;6220181;28;20049;-84
2022/02/24 04:04:25;;;;;;;16.60;9.15;;;;;;;;;;6220158;28;20050;-84
2022/02/24 04:07:27;;;;;;;16.30;9.63;;;;;;;;;;6219557;28;20137;-85
2022/02/24 04:10:29;;;;;;;22.00;10.60;;;;;;;;;;6220657;28;20157;-88
2022/02/24 04:13:31;;;;;;;20.20;10.35;;;;;;;;;;6259266;28;20045;-84
2022/02/24 04:16:32;;;;;;;22.23;11.73;;;;;;;;;;6244363;28;20041;-82
2022/02/24 04:19:35;;;;;;;24.50;11.90;;;;;;;;;;6249580;28;20052;-83
2022/02/24 04:22:36;;;;;;;23.42;10.90;;;;;;;;;;6255834;28;20049;-83
2022/02/24 04:25:38;;;;;;;20.00;10.35;;;;;;;;;;6223024;28;20145;-84
2022/02/24 04:28:40;;;;;;;21.92;11.02;;;;;;;;;;6249679;28;20150;-84
2022/02/24 04:31:44;;;;;;;16.95;9.63;;;;;;;;;;6240973;28;20065;-83
2022/02/24 04:34:45;;;;;;;17.73;9.23;;;;;;;;;;6222386;28;20037;-82
2022/02/24 04:37:48;;;;;;;17.65;8.88;;;;;;;;;;6242559;28;20049;-82
2022/02/24 04:40:50;;;;;;;13.68;8.43;;;;;;;;;;6219354;28;20041;-84
2022/02/24 04:43:51;;;;;;;14.35;8.18;;;;;;;;;;6254471;28;20053;-84
2022/02/24 04:46:53;;;;;;;16.17;8.45;;;;;;;;;;6243305;28;20061;-84
2022/02/24 04:49:55;;;;;;;16.13;8.02;;;;;;;;;;6240131;28;20063;-85
2022/02/24 04:52:57;;;;;;;19.52;8.52;;;;;;;;;;6243587;28;20323;-83
2022/02/24 04:55:59;;;;;;;15.98;8.23;;;;;;;;;;6244421;28;20041;-84
2022/02/24 04:59:01;;;;;;;16.98;8.13;;;;;;;;;;6246407;28;20047;-84
2022/02/24 05:02:03;;;;;;;16.85;8.15;;;;;;;;;;6248019;28;20120;-84
2022/02/24 05:05:05;;;;;;;16.00;8.70;;;;;;;;;;6243862;28;20057;-84
2022/02/24 05:08:07;;;;;;;15.25;8.07;;;;;;;;;;6237953;28;20120;-84
2022/02/24 05:11:08;;;;;;;15.32;8.45;;;;;;;;;;6221753;28;20081;-83
2022/02/24 05:14:10;;;;;;;17.17;8.18;;;;;;;;;;6237441;28;20687;-85
2022/02/24 05:17:12;;;;;;;14.02;7.28;;;;;;;;;;6238463;28;20057;-82
2022/02/24 05:20:14;;;;;;;14.73;7.80;;;;;;;;;;6228785;28;20111;-81
2022/02/24 05:23:17;;;;;;;12.35;7.38;;;;;;;;;;6245035;28;20033;-82
2022/02/24 05:26:19;;;;;;;16.88;9.18;;;;;;;;;;6245954;28;20049;-83
2022/02/24 05:29:21;;;;;;;18.75;10.38;;;;;;;;;;6247172;28;20087;-83
2022/02/24 05:32:23;;;;;;;16.92;8.15;;;;;;;;;;6247735;28;20041;-83
2022/02/24 05:35:24;;;;;;;17.35;8.20;;;;;;;;;;6244185;28;20042;-84
2022/02/24 05:38:26;;;;;;;16.45;8.52;;;;;;;;;;6244523;28;20044;-85
2022/02/24 05:41:28;;;;;;;15.55;8.20;;;;;;;;;;6236631;28;20679;-82
2022/02/24 05:44:35;;;;;;;19.98;9.10;;;;;;;;;;6221000;28;20176;-84
2022/02/24 05:47:37;;;;;;;15.55;7.97;;;;;;;;;;6237226;28;20419;-83
2022/02/24 05:50:39;;;;;;;15.70;8.95;;;;;;;;;;6226089;28;20048;-84
2022/02/24 05:53:41;;;;;;;18.87;9.07;;;;;;;;;;6244813;28;20128;-88
2022/02/24 05:56:43;;;;;;;15.35;7.75;;;;;;;;;;6246468;28;20037;-83
2022/02/24 05:59:44;;;;;;;14.38;7.53;;;;;;;;;;6246256;28;20046;-84
2022/02/24 06:02:46;;;;;;;15.00;8.65;;;;;;;;;;6245276;28;20037;-83
2022/02/24 06:05:51;;;;;;;15.55;8.82;;;;;;;;;;6243397;28;20060;-82
2022/02/24 06:08:53;;;;;;;17.23;8.77;;;;;;;;;;6261327;28;20052;-82
2022/02/24 06:11:54;;;;;;;15.15;8.80;;;;;;;;;;6248002;28;20062;-83
2022/02/24 06:14:56;;;;;;;16.00;8.38;;;;;;;;;;6221925;28;20141;-85
2022/02/24 06:17:58;;;;;;;12.95;7.47;;;;;;;;;;6236285;28;20580;-84
2022/02/24 06:21:00;;;;;;;13.90;8.32;;;;;;;;;;6248597;28;20498;-83
2022/02/24 06:24:02;;;;;;;14.90;8.15;;;;;;;;;;6244569;28;20049;-80
2022/02/24 06:27:03;;;;;;;18.65;8.80;;;;;;;;;;6228647;28;20175;-82
2022/02/24 06:30:05;;;;;;;16.60;7.88;;;;;;;;;;6218739;28;20044;-83
2022/02/24 06:33:07;;;;;;;16.10;8.40;;;;;;;;;;6234188;28;20053;-83
2022/02/24 06:36:09;;;;;;;13.65;7.85;;;;;;;;;;6219270;28;20045;-81
2022/02/24 06:39:11;;;;;;;12.52;7.03;;;;;;;;;;6218682;28;20457;-81
2022/02/24 06:42:13;;;;;;;15.75;7.10;;;;;;;;;;6218735;28;20062;-82
2022/02/24 06:45:14;;;;;;;13.60;7.57;;;;;;;;;;6220732;28;20045;-81
2022/02/24 06:48:16;;;;;;;14.05;8.35;;;;;;;;;;6220577;28;20052;-84
2022/02/24 06:51:18;;;;;;;16.90;8.15;;;;;;;;;;6237629;28;20113;-82
2022/02/24 06:54:19;;;;;;;16.30;8.93;;;;;;;;;;6238216;28;20057;-82
2022/02/24 06:57:21;;;;;;;14.80;8.02;;;;;;;;;;6239308;28;20112;-85
2022/02/24 07:00:23;;;;;;;14.98;8.35;;;;;;;;;;6246967;28;20045;-85
2022/02/24 07:03:25;;;;;;;13.30;8.15;;;;;;;;;;6246235;28;20065;-82
2022/02/24 07:06:27;;;;;;;18.17;7.78;;;;;;;;;;6251718;28;20053;-81
2022/02/24 07:09:31;;;;;;;11.88;5.75;;;;;;;;;;6221747;28;20050;-81
2022/02/24 07:12:32;;;;;;;5.63;2.92;;;;;;;;;;6238684;28;20076;-80
2022/02/24 07:15:34;;;;;;;162.63;52.72;;;;;;;;;;6236816;28;20506;-80
2022/02/24 07:18:35;;;;;;;9.27;4.95;;;;;;;;;;6236221;28;20046;-80
2022/02/24 07:21:37;;;;;;;25.77;13.60;;;;;;;;;;6228170;28;20070;-79
2022/02/24 07:24:39;;;;;;;15.38;7.10;;;;;;;;;;6223302;28;20065;-79
2022/02/24 07:27:44;;;;;;;6.25;3.40;;;;;;;;;;6242942;28;20457;-80
2022/02/24 07:30:46;;;;;;;5.00;1.98;;;;;;;;;;6246569;28;20501;-84
2022/02/24 07:33:48;;;;;;;2.60;1.35;;;;;;;;;;6262254;28;20065;-82
2022/02/24 07:36:50;;;;;;;4.55;1.70;;;;;;;;;;6223627;28;20057;-83
2022/02/24 07:39:52;;;;;;;3.13;1.50;;;;;;;;;;6236268;28;20096;-84
2022/02/24 07:42:54;;;;;;;3.03;1.73;;;;;;;;;;6239629;28;20085;-85
2022/02/24 07:45:55;;;;;;;4.65;1.40;;;;;;;;;;6247742;28;20738;-83
2022/02/24 07:48:57;;;;;;;5.75;2.08;;;;;;;;;;6241827;28;20060;-81
2022/02/24 07:51:58;;;;;;;4.15;1.73;;;;;;;;;;6217721;28;20132;-84
2022/02/24 07:55:00;;;;;;;2.13;1.50;;;;;;;;;;6234569;28;20080;-82
2022/02/24 07:58:03;;;;;;;3.78;1.90;;;;;;;;;;6219460;28;20632;-83
2022/02/24 08:01:05;;;;;;;4.30;1.60;;;;;;;;;;6221352;28;20104;-82
2022/02/24 08:04:07;;;;;;;6.07;1.35;;;;;;;;;;6202457;28;20041;-83
2022/02/24 08:07:08;;;;;;;3.05;1.77;;;;;;;;;;6220433;28;20054;-81
2022/02/24 08:10:10;;;;;;;3.30;1.70;;;;;;;;;;6217110;28;20050;-82
2022/02/24 08:13:12;;;;;;;3.20;1.50;;;;;;;;;;6258132;28;20565;-83
2022/02/24 08:16:16;;;;;;;4.00;1.80;;;;;;;;;;6259231;28;20048;-82
2022/02/24 08:19:18;;;;;;;4.57;1.92;;;;;;;;;;6243797;28;20045;-84
2022/02/24 08:22:19;;;;;;;3.83;1.85;;;;;;;;;;6253841;28;20486;-83
2022/02/24 08:25:21;;;;;;;8.75;1.60;;;;;;;;;;6246802;28;20065;-84
2022/02/24 08:28:23;;;;;;;3.05;1.52;;;;;;;;;;6245621;28;20072;-83
2022/02/24 08:31:26;;;;;;;3.45;1.60;;;;;;;;;;6241461;28;20097;-83
2022/02/24 08:34:28;;;;;;;2.03;1.30;;;;;;;;;;6225790;28;20037;-85
2022/02/24 08:37:30;;;;;;;4.60;1.63;;;;;;;;;;6227957;28;20045;-83
2022/02/24 08:40:32;;;;;;;3.13;1.42;;;;;;;;;;6219426;28;20066;-83
2022/02/24 08:43:34;;;;;;;3.53;1.58;;;;;;;;;;6237973;28;20061;-82
2022/02/24 08:46:35;;;;;;;2.85;1.30;;;;;;;;;;6247412;28;20450;-84
2022/02/24 08:49:40;;;;;;;4.97;1.63;;;;;;;;;;6247429;28;20083;-82
2022/02/24 08:52:42;;;;;;;6.25;1.70;;;;;;;;;;6248336;28;20127;-82
2022/02/24 08:55:43;;;;;;;5.68;1.88;;;;;;;;;;6222057;28;20053;-82
2022/02/24 08:58:45;;;;;;;4.00;1.70;;;;;;;;;;6237887;28;20053;-82
2022/02/24 09:01:47;;;;;;;4.72;2.00;;;;;;;;;;6246179;28;20760;-84
2022/02/24 09:04:48;;;;;;;6.95;2.17;;;;;;;;;;6269973;28;20124;-84
2022/02/24 09:07:50;;;;;;;5.57;2.15;;;;;;;;;;6246661;28;20068;-83
2022/02/24 09:11:08;;;;;;;2.47;1.95;;;;;;;;;;6243786;28;20053;-83
2022/02/24 09:14:10;;;;;;;3.22;1.75;;;;;;;;;;6248604;28;20099;-82
2022/02/24 09:17:12;;;;;;;3.85;1.77;;;;;;;;;;6236767;28;20502;-83
2022/02/24 09:20:14;;;;;;;6.00;2.85;;;;;;;;;;6258159;28;20052;-84
2022/02/24 09:23:15;;;;;;;3.92;2.03;;;;;;;;;;6242484;28;20041;-84
2022/02/24 09:26:17;;;;;;;4.90;1.80;;;;;;;;;;6220791;28;20091;-82
2022/02/24 09:29:19;;;;;;;4.75;1.50;;;;;;;;;;6236292;28;20112;-83
2022/02/24 09:32:21;;;;;;;3.15;1.80;;;;;;;;;;6221368;28;20037;-83
2022/02/24 09:35:23;;;;;;;4.20;1.80;;;;;;;;;;6222845;28;20173;-83
2022/02/24 09:38:25;;;;;;;4.50;1.92;;;;;;;;;;6239173;28;20046;-83
2022/02/24 09:41:27;;;;;;;3.20;2.00;;;;;;;;;;6221672;28;20038;-83
2022/02/24 09:44:28;;;;;;;2.85;1.50;;;;;;;;;;6242765;28;20084;-84
2022/02/24 09:47:30;;;;;;;3.90;1.77;;;;;;;;;;6262955;28;20136;-82
2022/02/24 09:50:33;;;;;;;4.57;1.80;;;;;;;;;;6262028;28;20045;-83
2022/02/24 09:53:35;;;;;;;5.18;1.55;;;;;;;;;;6220394;28;20184;-83
2022/02/24 09:56:37;;;;;;;4.78;2.10;;;;;;;;;;6230982;28;20425;-83
2022/02/24 09:59:39;;;;;;;3.70;1.70;;;;;;;;;;6229446;28;20100;-83
2022/02/24 10:02:41;;;;;;;4.95;1.90;;;;;;;;;;6235480;28;20072;-84
2022/02/24 10:05:46;;;;;;;3.53;2.03;;;;;;;;;;6216679;28;20053;-83
2022/02/24 10:08:48;;;;;;;3.83;1.95;;;;;;;;;;6237989;28;20038;-83
2022/02/24 10:11:50;;;;;;;4.55;1.77;;;;;;;;;;6236908;28;20124;-83
2022/02/24 10:14:51;;;;;;;5.85;2.30;;;;;;;;;;6220627;28;20061;-83
2022/02/24 10:18:05;;;;;;;4.70;2.13;;;;;;;;;;6237194;28;20050;-83
2022/02/24 10:21:14;;;;;;;4.20;2.13;;;;;;;;;;6257309;28;20522;-83
2022/02/24 10:24:27;;;;;;;4.97;1.95;;;;;;;;;;6223269;28;20042;-83
2022/02/24 10:27:32;;;;;;;7.25;3.25;;;;;;;;;;6219404;28;20050;-84
2022/02/24 10:30:34;;;;;;;5.05;2.20;;;;;;;;;;6223803;28;20041;-85
2022/02/24 10:33:38;;;;;;;4.38;1.83;;;;;;;;;;6246721;28;20084;-83
2022/02/24 10:36:39;;;;;;;6.43;2.33;;;;;;;;;;6247480;28;20057;-83
2022/02/24 10:39:41;;;;;;;4.28;2.10;;;;;;;;;;6226932;28;20045;-82
2022/02/24 10:42:43;;;;;;;2.15;1.70;;;;;;;;;;6255991;28;20073;-84
2022/02/24 10:45:47;;;;;;;3.90;1.85;;;;;;;;;;6240805;28;20057;-83
2022/02/24 10:48:53;;;;;;;4.25;1.80;;;;;;;;;;6232322;28;20089;-83
2022/02/24 10:52:20;;;;;;;4.18;2.20;;;;;;;;;;6239956;28;20048;-83
2022/02/24 10:55:22;;;;;;;5.50;1.58;;;;;;;;;;6241747;28;20049;-83
2022/02/24 10:58:24;;;;;;;6.10;1.88;;;;;;;;;;6244028;28;20131;-83
2022/02/24 11:01:29;;;;;;;5.67;1.83;;;;;;;;;;6249321;28;20072;-82
2022/02/24 11:04:31;;;;;;;3.65;2.05;;;;;;;;;;6242007;28;20069;-81
2022/02/24 11:07:32;;;;;;;3.45;1.77;;;;;;;;;;6245227;28;20111;-81
2022/02/24 11:10:35;;;;;;;3.10;1.67;;;;;;;;;;6242527;28;20096;-82
2022/02/24 11:13:36;;;;;;;3.23;1.63;;;;;;;;;;6221437;28;20119;-84
2022/02/24 11:16:39;;;;;;;3.88;1.77;;;;;;;;;;6218716;28;20065;-85
2022/02/24 11:19:45;;;;;;;4.10;1.97;;;;;;;;;;6238839;28;20126;-84
2022/02/24 11:22:48;;;;;;;3.25;1.85;;;;;;;;;;6236720;28;20609;-83
2022/02/24 11:25:56;;;;;;;5.25;1.92;;;;;;;;;;6239846;28;20059;-83
2022/02/24 11:29:12;;;;;;;3.10;2.00;;;;;;;;;;6245919;28;20052;-83
2022/02/24 11:32:19;;;;;;;4.13;1.50;;;;;;;;;;6243165;28;20054;-82
2022/02/24 11:35:22;;;;;;;6.32;1.90;;;;;;;;;;6257693;28;20061;-82
2022/02/24 11:38:24;;;;;;;7.25;2.03;;;;;;;;;;6245400;28;20506;-84
2022/02/24 11:41:26;;;;;;;4.57;1.95;;;;;;;;;;6235519;28;20038;-82
2022/02/24 11:44:40;;;;;;;4.22;1.70;;;;;;;;;;6253040;28;20092;-82
2022/02/24 11:48:02;;;;;;;5.18;2.20;;;;;;;;;;6269912;28;20045;-85
2022/02/24 11:51:07;;;;;;;3.70;2.08;;;;;;;;;;6264485;28;20402;-84
2022/02/24 11:54:38;;;;;;;5.20;2.25;;;;;;;;;;6261339;28;20045;-83
2022/02/24 11:57:40;;;;;;;3.50;1.63;;;;;;;;;;6260293;28;20060;-83
2022/02/24 12:01:16;;;;;;;2.45;1.60;;;;;;;;;;6261483;28;20046;-82
2022/02/24 12:04:22;;;;;;;5.18;2.00;;;;;;;;;;6252937;28;20042;-82
2022/02/24 12:07:24;;;;;;;6.22;2.63;;;;;;;;;;6235153;28;20042;-83
2022/02/24 12:10:45;;;;;;;1.85;1.48;;;;;;;;;;6235483;28;20045;-83
2022/02/24 12:13:46;;;;;;;3.38;1.70;;;;;;;;;;6260691;28;20056;-81
2022/02/24 12:17:08;;;;;;;3.95;2.00;;;;;;;;;;6243932;28;20053;-82
2022/02/24 12:20:26;;;;;;;5.25;2.20;;;;;;;;;;6255312;28;20057;-83
2022/02/24 12:23:31;;;;;;;4.32;2.05;;;;;;;;;;6229534;28;20038;-81
2022/02/24 12:26:45;;;;;;;4.25;1.60;;;;;;;;;;6215634;28;20066;-81
2022/02/24 12:29:46;;;;;;;;;;;;;;;;;;6215825;28;20112;-83
2022/02/24 12:33:06;;;;;;;3.40;2.03;;;;;;;;;;6215766;28;19921;-81
2022/02/24 12:36:08;;;;;;;4.85;2.00;;;;;;;;;;6215588;28;20525;-80
2022/02/24 12:39:12;;;;;;;7.13;2.35;;;;;;;;;;6232241;28;20053;-81
2022/02/24 12:42:14;;;;;;;6.43;1.92;;;;;;;;;;6230578;28;20049;-80
2022/02/24 12:45:20;;;;;;;2.83;1.75;;;;;;;;;;6239564;28;20803;-80
2022/02/24 12:48:22;;;;;;;3.47;1.73;;;;;;;;;;6264371;28;20045;-81
2022/02/24 12:51:24;;;;;;;3.30;1.83;;;;;;;;;;6231940;28;20045;-83
2022/02/24 12:54:28;;;;;;;3.78;1.60;;;;;;;;;;6240755;28;20042;-83
2022/02/24 12:57:29;;;;;;;4.63;1.50;;;;;;;;;;6228494;28;20133;-82
2022/02/24 13:00:33;;;;;;;6.63;1.50;;;;;;;;;;6236326;28;20049;-82
2022/02/24 13:03:35;;;;;;;2.55;1.30;;;;;;;;;;6239843;28;20049;-83
2022/02/24 13:06:39;;;;;;;2.15;1.42;;;;;;;;;;6232691;28;20502;-83
2022/02/24 13:09:42;;;;;;;2.67;1.27;;;;;;;;;;6216718;28;20398;-82
2022/02/24 13:12:46;;;;;;;2.80;1.33;;;;;;;;;;6235205;28;20482;-83
2022/02/24 13:15:48;;;;;;;1.98;1.20;;;;;;;;;;6231955;28;20411;-83
2022/02/24 13:18:52;;;;;;;3.10;1.20;;;;;;;;;;6224005;28;20062;-81
2022/02/24 13:21:56;;;;;;;1.83;1.10;;;;;;;;;;6245502;28;20533;-85
2022/02/24 13:24:58;;;;;;;2.35;1.15;;;;;;;;;;6241883;28;20132;-83
2022/02/24 13:28:00;;;;;;;6.53;1.17;;;;;;;;;;6241994;28;20046;-82
2022/02/24 13:31:08;;;;;;;3.08;1.05;;;;;;;;;;6244279;28;20741;-81
2022/02/24 13:34:15;;;;;;;1.38;0.85;;;;;;;;;;6249024;28;20502;-80
2022/02/24 13:37:16;;;;;;;1.17;0.85;;;;;;;;;;6248127;28;20087;-82
2022/02/24 13:40:18;;;;;;;1.35;1.13;;;;;;;;;;6228885;28;20053;-83
2022/02/24 13:43:20;;;;;;;6.35;1.40;;;;;;;;;;6249254;28;20045;-82
2022/02/24 13:46:21;;;;;;;3.28;1.00;;;;;;;;;;6248270;28;20042;-85
2022/02/24 13:49:32;;;;;;;1.13;0.80;;;;;;;;;;6251627;28;20041;-82
2022/02/24 13:52:39;;;;;;;1.60;0.93;;;;;;;;;;6238449;28;20115;-85
2022/02/24 13:55:51;;;;;;;1.20;0.90;;;;;;;;;;6239215;28;20071;-83
2022/02/24 13:59:01;;;;;;;3.07;1.10;;;;;;;;;;6242267;28;20057;-82
2022/02/24 14:02:09;;;;;;;1.75;0.93;;;;;;;;;;6256409;28;20046;-83
2022/02/24 14:05:14;;;;;;;3.42;0.98;;;;;;;;;;6264889;28;20778;-82
2022/02/24 14:08:16;;;;;;;3.05;0.82;;;;;;;;;;6246953;28;20123;-82
2022/02/24 14:11:20;;;;;;;2.38;1.40;;;;;;;;;;6264501;28;20072;-82
2022/02/24 14:14:22;;;;;;;3.80;1.05;;;;;;;;;;6245338;28;20206;-82
2022/02/24 14:17:24;;;;;;;1.33;0.90;;;;;;;;;;6247892;28;20045;-81
2022/02/24 14:20:26;;;;;;;1.58;0.80;;;;;;;;;;6247266;28;20456;-81
2022/02/24 14:23:28;;;;;;;1.45;0.77;;;;;;;;;;6259648;28;20617;-82
2022/02/24 14:26:30;;;;;;;0.93;0.70;;;;;;;;;;6239417;28;20034;-84
2022/02/24 14:29:32;;;;;;;1.85;0.93;;;;;;;;;;6245057;28;20053;-84
2022/02/24 14:32:35;;;;;;;3.47;0.85;;;;;;;;;;6292155;28;20044;-85
2022/02/24 14:35:38;;;;;;;1.40;0.70;;;;;;;;;;6282664;28;20032;-86
2022/02/24 14:38:40;;;;;;;2.15;0.82;;;;;;;;;;6281215;28;20063;-85
2022/02/24 14:41:42;;;;;;;1.73;0.88;;;;;;;;;;6282258;28;20033;-85
2022/02/24 14:44:44;;;;;;;0.93;0.73;;;;;;;;;;6291173;28;20055;-85
2022/02/24 14:47:46;;;;;;;1.20;0.80;;;;;;;;;;6284713;28;20064;-83
2022/02/24 14:50:48;;;;;;;1.42;0.88;;;;;;;;;;6240837;28;20095;-82
2022/02/24 14:53:50;;;;;;;0.63;0.50;;;;;;;;;;6261725;28;20041;-83
2022/02/24 14:56:52;;;;;;;1.40;0.57;;;;;;;;;;6273808;28;20034;-81
2022/02/24 14:59:55;;;;;;;1.42;0.50;;;;;;;;;;6248943;28;20049;-80
2022/02/24 15:02:59;;;;;;;1.42;0.93;;;;;;;;;;6268062;28;20060;-82
2022/02/24 15:06:01;;;;;;;;;;;;;;;;;;6239885;28;20460;-82
2022/02/24 15:09:02;;;;;;;1.58;0.75;;;;;;;;;;6237319;28;19948;-82
2022/02/24 15:12:09;;;;;;;3.58;0.82;;;;;;;;;;6235049;28;20037;-82
2022/02/24 15:15:11;;;;;;;1.33;0.60;;;;;;;;;;6260459;28;20109;-82
2022/02/24 15:18:14;;;;;;;1.73;0.60;;;;;;;;;;6245397;28;20752;-82
2022/02/24 15:21:16;;;;;;;3.15;0.63;;;;;;;;;;6241641;28;20065;-82
2022/02/24 15:24:18;;;;;;;1.10;0.73;;;;;;;;;;6243419;28;20067;-81
2022/02/24 15:27:19;;;;;;;1.05;0.77;;;;;;;;;;6249829;28;20057;-82
2022/02/24 15:30:23;;;;;;;1.10;0.80;;;;;;;;;;6219060;28;20690;-84
2022/02/24 15:33:25;;;;;;;0.90;0.60;;;;;;;;;;6235534;28;20061;-81
2022/02/24 15:36:28;;;;;;;1.10;0.50;;;;;;;;;;6219984;28;20041;-84
2022/02/24 15:39:30;;;;;;;1.60;0.60;;;;;;;;;;6235913;28;20081;-83
2022/02/24 15:42:33;;;;;;;2.65;0.70;;;;;;;;;;6222937;28;20131;-81
2022/02/24 15:45:35;;;;;;;1.15;0.70;;;;;;;;;;6221890;28;20041;-80
2022/02/24 15:48:37;;;;;;;2.17;0.63;;;;;;;;;;6231271;28;20128;-81
2022/02/24 15:51:39;;;;;;;1.27;0.57;;;;;;;;;;6245143;28;20068;-81
2022/02/24 15:54:41;;;;;;;2.95;0.60;;;;;;;;;;6260262;28;20053;-82
2022/02/24 15:57:43;;;;;;;0.82;0.50;;;;;;;;;;6268164;28;20766;-81
2022/02/24 16:00:45;;;;;;;2.40;0.60;;;;;;;;;;6266871;28;20064;-82
2022/02/24 16:03:46;;;;;;;1.38;0.60;;;;;;;;;;6251276;28;20038;-84
2022/02/24 16:06:48;;;;;;;0.73;0.63;;;;;;;;;;6244383;28;20060;-81
2022/02/24 16:10:11;;;;;;;2.22;0.80;;;;;;;;;;6258005;28;20336;-80
2022/02/24 16:13:13;;;;;;;0.47;0.45;;;;;;;;;;6220859;28;20116;-80
2022/02/24 16:16:14;;;;;;;0.98;0.50;;;;;;;;;;6220754;28;20560;-81
2022/02/24 16:19:17;;;;;;;2.78;0.80;;;;;;;;;;6231944;28;20045;-81
2022/02/24 16:22:19;;;;;;;1.30;0.90;;;;;;;;;;6269156;28;20126;-80
2022/02/24 16:25:22;;;;;;;1.80;0.65;;;;;;;;;;6239906;28;20065;-82
2022/02/24 16:28:24;;;;;;;2.20;0.70;;;;;;;;;;6260991;28;20038;-80
2022/02/24 16:31:28;;;;;;;3.00;0.60;;;;;;;;;;6245885;28;20049;-81
2022/02/24 16:34:49;;;;;;;2.28;0.80;;;;;;;;;;6240134;28;20537;-82
2022/02/24 16:37:52;;;;;;;1.87;0.83;;;;;;;;;;6241260;28;20049;-81
2022/02/24 16:40:53;;;;;;;1.42;0.70;;;;;;;;;;6252740;28;20566;-81
2022/02/24 16:43:55;;;;;;;2.60;0.90;;;;;;;;;;6219366;28;20042;-80
2022/02/24 16:46:57;;;;;;;2.67;0.60;;;;;;;;;;6244225;28;20052;-80
2022/02/24 16:49:59;;;;;;;2.47;0.45;;;;;;;;;;6268700;28;20126;-81
2022/02/24 16:53:01;;;;;;;0.00;0.00;;;;;;;;;;6249813;28;20050;-82
2022/02/24 16:56:05;;;;;;;0.10;0.10;;;;;;;;;;6233268;28;20541;-82
2022/02/24 16:59:07;;;;;;;0.10;0.10;;;;;;;;;;6241200;28;20517;-81
2022/02/24 17:02:13;;;;;;;0.40;0.30;;;;;;;;;;6230839;28;20046;-81
2022/02/24 17:05:17;;;;;;;0.15;0.15;;;;;;;;;;6258687;28;20042;-82
2022/02/24 17:08:19;;;;;;;0.50;0.22;;;;;;;;;;6237402;28;20458;-81
2022/02/24 17:11:21;;;;;;;0.17;0.13;;;;;;;;;;6242593;28;20162;-82
2022/02/24 17:14:23;;;;;;;0.32;0.10;;;;;;;;;;6244833;28;20172;-81
2022/02/24 17:17:24;;;;;;;0.20;0.20;;;;;;;;;;6260127;28;20068;-82
2022/02/24 17:20:26;;;;;;;0.30;0.30;;;;;;;;;;6239743;28;20073;-82
2022/02/24 17:23:28;;;;;;;0.50;0.40;;;;;;;;;;6221397;28;20129;-82
2022/02/24 17:26:29;;;;;;;0.50;0.30;;;;;;;;;;6219470;28;20185;-80
2022/02/24 17:29:31;;;;;;;0.93;0.68;;;;;;;;;;6218810;28;20041;-82
2022/02/24 17:32:37;;;;;;;0.68;0.50;;;;;;;;;;6220299;28;20058;-81
2022/02/24 17:35:41;;;;;;;1.15;0.30;;;;;;;;;;6221693;28;20049;-81
2022/02/24 17:38:43;;;;;;;0.50;0.35;;;;;;;;;;6218254;28;20046;-82
2022/02/24 17:41:46;;;;;;;0.47;0.47;;;;;;;;;;6223331;28;20054;-84
2022/02/24 17:44:48;;;;;;;0.75;0.52;;;;;;;;;;6219755;28;20045;-84
2022/02/24 17:47:50;;;;;;;0.68;0.40;;;;;;;;;;6246524;28;20049;-84
2022/02/24 17:50:52;;;;;;;0.40;0.40;;;;;;;;;;6245143;28;20125;-84
2022/02/24 17:53:55;;;;;;;0.40;0.40;;;;;;;;;;6263733;28;20060;-85
2022/02/24 17:56:57;;;;;;;;;;;;;;;;;;6256727;28;20073;-83
2022/02/24 17:59:59;;;;;;;0.63;0.50;;;;;;;;;;6268174;28;19992;-84
2022/02/24 18:03:01;;;;;;;1.75;0.35;;;;;;;;;;6259375;28;20133;-83
2022/02/24 18:06:03;;;;;;;0.40;0.40;;;;;;;;;;6240089;28;20041;-82
2022/02/24 18:09:05;;;;;;;0.50;0.35;;;;;;;;;;6238593;28;20115;-82